createdAt,value
2023-04-15T00:26:07.445Z,63.50
2023-04-15T00:28:59.856Z,64.10
2023-04-15T00:34:33.486Z,64.90
2023-04-15T01:53:41.064Z,73.80
2023-04-15T02:05:26.818Z,75.40
2023-04-15T02:07:56.961Z,76.00
2023-04-15T02:10:24.012Z,76.60
2023-04-15T02:30:02.773Z,79.40
2023-04-15T02:32:34.405Z,79.80
2023-04-15T02:35:08.821Z,80.40
2023-04-15T02:46:22.190Z,82.00
2023-04-15T02:48:53.991Z,82.70
2023-04-15T02:51:21.988Z,82.70
2023-04-15T02:54:04.034Z,83.10
2023-04-15T02:56:33.530Z,83.30
2023-04-15T02:59:00.555Z,83.90
2023-04-15T03:01:27.776Z,84.30
2023-04-15T03:04:03.055Z,84.70
2023-04-15T03:13:03.807Z,85.80
2023-04-15T03:15:30.765Z,86.20
2023-04-15T03:21:35.379Z,87.00
2023-04-15T03:24:14.594Z,87.90
2023-04-15T03:26:41.580Z,88.40
2023-04-15T03:29:20.554Z,88.80
2023-04-15T03:31:47.512Z,89.30
2023-04-15T03:38:02.514Z,90.40
2023-04-15T03:48:54.503Z,92.20
2023-04-15T03:54:08.845Z,93.10
2023-04-15T03:56:39.015Z,93.80
2023-04-15T04:07:32.562Z,95.70
2023-04-15T04:10:00.495Z,96.30
2023-04-15T04:13:01.749Z,96.70
2023-04-15T04:15:31.892Z,97.10
2023-04-15T04:18:12.928Z,97.30
2023-04-15T04:20:51.695Z,97.50
2023-04-15T04:23:21.184Z,98.10
2023-04-15T04:25:59.771Z,98.20
2023-04-15T04:29:07.145Z,98.50
2023-04-15T04:31:52.477Z,98.90
2023-04-15T04:34:19.147Z,99.50
2023-04-15T04:36:45.836Z,99.90
2023-04-15T04:42:57.381Z,99.90
2023-04-15T04:45:24.603Z,99.90
2023-04-15T04:47:51.310Z,99.90
2023-04-15T04:50:24.491Z,99.90
2023-04-15T04:53:09.098Z,99.90
2023-04-15T04:55:38.100Z,99.90
2023-04-15T04:58:16.849Z,99.90
2023-04-15T05:00:56.560Z,99.90
2023-04-15T05:03:41.452Z,99.90
2023-04-15T05:11:51.761Z,99.90
2023-04-15T05:14:18.938Z,99.90
2023-04-15T05:16:45.696Z,99.90
2023-04-15T05:19:25.918Z,99.90
2023-04-15T05:21:52.805Z,99.90
2023-04-15T05:25:01.145Z,99.90
2023-04-15T05:27:28.069Z,99.90
2023-04-15T06:01:05.515Z,99.90
2023-04-15T07:08:19.818Z,97.10
2023-04-15T07:49:05.610Z,83.00
2023-04-15T08:24:46.318Z,76.20
2023-04-15T09:09:04.431Z,69.30
2023-04-15T11:13:43.437Z,71.60
2023-04-15T11:22:35.104Z,68.70
2023-04-15T11:25:11.251Z,70.30
2023-04-15T11:28:07.752Z,71.60
2023-04-15T11:37:41.412Z,72.10
2023-04-15T11:58:37.365Z,71.70
2023-04-15T12:04:38.780Z,71.00
2023-04-15T12:07:45.611Z,71.80
2023-04-15T13:24:11.014Z,74.40
2023-04-15T13:40:34.391Z,69.70
2023-04-15T13:47:16.000Z,70.30
2023-04-15T13:49:41.039Z,68.70
2023-04-15T13:52:14.356Z,69.50
2023-04-15T13:54:41.076Z,70.40
2023-04-15T13:57:20.120Z,70.80
2023-04-15T13:59:46.836Z,71.70
2023-04-15T14:02:13.692Z,71.60
2023-04-15T14:04:52.306Z,69.20
2023-04-15T14:07:19.130Z,68.80
2023-04-15T14:09:58.481Z,68.60
2023-04-15T14:12:25.113Z,68.40
2023-04-15T14:15:04.104Z,70.90
2023-04-15T14:17:44.951Z,72.00
2023-04-15T14:20:11.884Z,69.30
2023-04-15T14:22:38.514Z,70.00
2023-04-15T14:25:05.608Z,70.00
2023-04-15T14:27:43.753Z,70.40
2023-04-15T14:30:10.768Z,71.80
2023-04-15T14:32:37.582Z,72.70
2023-04-15T14:35:16.294Z,73.30
2023-04-15T14:37:42.994Z,73.30
2023-04-15T14:40:26.423Z,74.00
2023-04-15T14:42:56.577Z,74.00
2023-04-15T14:45:45.415Z,74.10
2023-04-15T14:48:19.255Z,74.70
2023-04-15T14:51:32.711Z,74.60
2023-04-15T14:54:17.161Z,73.30
2023-04-15T14:56:47.357Z,74.00
2023-04-15T15:07:33.170Z,75.60
2023-04-15T15:10:32.737Z,76.10
2023-04-15T15:13:26.707Z,78.00
2023-04-15T15:16:10.623Z,76.90
2023-04-15T15:18:54.503Z,76.50
2023-04-15T15:21:36.298Z,77.50
2023-04-15T15:24:08.892Z,76.50
2023-04-15T15:26:35.837Z,76.10
2023-04-15T15:29:13.047Z,76.20
2023-04-15T15:31:53.650Z,77.10
2023-04-15T15:34:40.025Z,78.60
2023-04-15T15:41:06.149Z,80.10
2023-04-15T15:43:32.987Z,81.50
2023-04-15T15:46:09.120Z,80.90
2023-04-15T15:51:51.479Z,78.80
2023-04-15T15:54:33.637Z,80.70
2023-04-15T16:00:04.878Z,79.30
2023-04-15T16:05:46.134Z,82.00
2023-04-15T16:08:22.035Z,82.80
2023-04-15T16:11:04.152Z,83.50
2023-04-15T16:13:32.006Z,83.50
2023-04-15T16:16:08.139Z,83.00
2023-04-15T16:18:43.863Z,83.10
2023-04-15T16:21:22.683Z,82.50
2023-04-15T16:27:26.506Z,83.30
2023-04-15T16:30:12.473Z,83.20
2023-04-15T16:32:39.273Z,83.40
2023-04-15T16:37:40.725Z,84.20
2023-04-15T16:42:50.506Z,84.20
2023-04-15T16:45:29.315Z,85.60
2023-04-15T16:51:07.784Z,86.60
2023-04-15T16:53:43.701Z,87.30
2023-04-15T17:02:08.779Z,90.70
2023-04-15T17:04:56.130Z,92.00
2023-04-15T17:07:32.054Z,93.20
2023-04-15T17:10:05.048Z,93.70
2023-04-15T17:12:41.818Z,93.40
2023-04-15T17:20:55.962Z,93.40
2023-04-15T17:27:48.367Z,92.80
2023-04-15T17:30:40.191Z,92.70
2023-04-15T17:33:56.283Z,92.50
2023-04-15T17:35:54.025Z,93.00
2023-04-15T17:38:20.973Z,94.10
2023-04-15T17:40:50.261Z,95.00
2023-04-15T17:43:17.382Z,95.20
2023-04-15T17:45:44.165Z,94.10
2023-04-15T17:48:14.086Z,92.10
2023-04-15T17:50:51.266Z,90.80
2023-04-15T17:53:18.777Z,90.20
2023-04-15T17:55:45.601Z,90.90
2023-04-15T17:58:21.527Z,91.30
2023-04-15T18:00:48.493Z,91.10
2023-04-15T18:03:16.168Z,91.40
2023-04-15T18:05:43.199Z,92.40
2023-04-15T18:08:10.115Z,93.20
2023-04-15T18:10:38.306Z,94.40
2023-04-15T18:13:05.047Z,95.00
2023-04-15T18:15:32.595Z,94.70
2023-04-15T18:18:00.270Z,94.10
2023-04-15T18:20:31.465Z,94.00
2023-04-15T18:22:58.206Z,94.50
2023-04-15T18:25:31.503Z,95.30
2023-04-15T18:27:59.488Z,94.70
2023-04-15T18:30:34.196Z,95.40
2023-04-15T18:33:01.082Z,95.90
2023-04-15T18:35:36.876Z,96.10
2023-04-15T18:41:10.003Z,97.30
2023-04-15T18:43:38.387Z,97.50
2023-04-15T18:46:05.158Z,97.00
2023-04-15T18:48:31.970Z,97.70
2023-04-15T18:50:58.661Z,97.70
2023-04-15T18:53:25.660Z,98.70
2023-04-15T18:55:52.423Z,98.50
2023-04-15T18:58:19.177Z,99.50
2023-04-15T19:00:46.110Z,99.90
2023-04-15T19:03:12.926Z,99.90
2023-04-15T19:05:39.755Z,99.90
2023-04-15T19:08:07.845Z,99.90
2023-04-15T19:10:34.813Z,99.90
2023-04-15T19:13:01.538Z,99.90
2023-04-15T19:15:28.943Z,99.50
2023-04-15T19:17:55.807Z,99.90
2023-04-15T19:20:22.804Z,99.90
2023-04-15T19:22:55.690Z,99.90
2023-04-15T19:25:22.487Z,99.70
2023-04-15T19:27:49.291Z,99.70
2023-04-15T19:30:19.722Z,99.90
2023-04-15T19:32:47.733Z,99.90
2023-04-15T19:35:14.710Z,99.90
2023-04-15T19:37:57.206Z,99.90
2023-04-15T19:40:24.026Z,99.90
2023-04-15T19:45:44.905Z,99.90
2023-04-15T19:48:12.276Z,99.90
2023-04-15T19:50:39.523Z,99.90
2023-04-15T19:53:09.350Z,99.90
2023-04-15T19:58:17.893Z,99.90
2023-04-15T20:00:47.942Z,99.50
2023-04-15T20:03:14.936Z,99.50
2023-04-15T20:06:03.941Z,99.90
2023-04-15T20:08:30.656Z,99.90
2023-04-15T20:11:10.272Z,99.90
2023-04-15T20:13:47.604Z,99.90
2023-04-15T20:16:52.002Z,99.90
2023-04-15T20:19:21.299Z,99.90
2023-04-15T20:24:29.751Z,99.90
2023-04-15T20:27:10.040Z,99.90
2023-04-15T20:29:50.417Z,99.90
2023-04-15T20:32:18.101Z,99.90
2023-04-15T20:34:53.973Z,99.90
2023-04-15T20:37:20.865Z,99.90
2023-04-15T20:39:47.660Z,99.90
2023-04-15T20:42:14.450Z,99.90
2023-04-15T20:44:43.049Z,99.90
2023-04-15T20:47:10.081Z,99.90
2023-04-15T20:49:51.397Z,99.90
2023-04-15T20:52:18.602Z,99.90
2023-04-15T20:57:41.155Z,99.90
2023-04-15T21:00:08.522Z,99.90
2023-04-15T21:02:35.376Z,99.90
2023-04-15T21:05:04.505Z,99.90
2023-04-15T21:07:31.810Z,99.90
2023-04-15T21:09:58.711Z,99.90
2023-04-15T21:12:25.502Z,99.90
2023-04-15T21:14:52.330Z,99.90
2023-04-15T21:17:41.721Z,99.90
2023-04-15T21:31:00.305Z,99.90
2023-04-15T21:38:44.661Z,99.90
2023-04-15T21:41:23.026Z,99.90
2023-04-15T21:44:04.655Z,99.90
2023-04-15T21:47:09.667Z,99.90
2023-04-15T21:52:38.757Z,99.90
2023-04-15T21:57:55.426Z,99.90
2023-04-15T22:00:43.681Z,99.90
2023-04-15T22:03:19.536Z,99.90
2023-04-15T22:09:45.922Z,99.90
2023-04-15T22:12:17.910Z,99.90
